sensor_id;sensor_type;location;lat;lon;timestamp;temperature;humidity
19947;DHT22;10135;50.702;7.276;2023-07-08T05:30:15;23.90;43.00
19947;DHT22;10135;50.702;7.276;2023-07-08T05:32:17;24.00;43.10
19947;DHT22;10135;50.702;7.276;2023-07-08T05:34:18;24.00;43.00
19947;DHT22;10135;50.702;7.276;2023-07-08T05:36:19;24.10;43.10
19947;DHT22;10135;50.702;7.276;2023-07-08T05:38:20;24.10;43.10
19947;DHT22;10135;50.702;7.276;2023-07-08T05:40:21;24.20;43.20
19947;DHT22;10135;50.702;7.276;2023-07-08T05:42:22;24.20;43.30
19947;DHT22;10135;50.702;7.276;2023-07-08T05:44:23;24.30;43.40
19947;DHT22;10135;50.702;7.276;2023-07-08T05:46:24;24.30;43.40
19947;DHT22;10135;50.702;7.276;2023-07-08T05:48:24;24.40;43.40
19947;DHT22;10135;50.702;7.276;2023-07-08T05:50:25;24.40;43.40
19947;DHT22;10135;50.702;7.276;2023-07-08T05:52:26;24.50;43.50
19947;DHT22;10135;50.702;7.276;2023-07-08T05:54:26;24.50;43.50
19947;DHT22;10135;50.702;7.276;2023-07-08T05:56:27;24.50;43.40
19947;DHT22;10135;50.702;7.276;2023-07-08T05:58:28;24.60;43.40
19947;DHT22;10135;50.702;7.276;2023-07-08T06:00:28;24.60;43.40
19947;DHT22;10135;50.702;7.276;2023-07-08T06:02:29;24.60;43.40
19947;DHT22;10135;50.702;7.276;2023-07-08T06:04:30;24.60;43.50
19947;DHT22;10135;50.702;7.276;2023-07-08T06:06:31;24.60;43.50
19947;DHT22;10135;50.702;7.276;2023-07-08T06:08:32;24.60;43.60
19947;DHT22;10135;50.702;7.276;2023-07-08T06:10:32;24.70;43.60
19947;DHT22;10135;50.702;7.276;2023-07-08T06:12:33;24.70;43.50
19947;DHT22;10135;50.702;7.276;2023-07-08T06:14:34;24.80;43.50
19947;DHT22;10135;50.702;7.276;2023-07-08T06:16:34;24.80;43.70
19947;DHT22;10135;50.702;7.276;2023-07-08T06:18:35;24.90;43.50
19947;DHT22;10135;50.702;7.276;2023-07-08T06:20:36;24.90;43.40
19947;DHT22;10135;50.702;7.276;2023-07-08T06:22:37;25.00;43.50
19947;DHT22;10135;50.702;7.276;2023-07-08T06:24:37;25.00;43.50
19947;DHT22;10135;50.702;7.276;2023-07-08T06:26:38;25.10;43.50
19947;DHT22;10135;50.702;7.276;2023-07-08T06:28:39;25.20;43.60
19947;DHT22;10135;50.702;7.276;2023-07-08T06:30:39;25.30;43.70
19947;DHT22;10135;50.702;7.276;2023-07-08T06:32:40;25.30;43.70
19947;DHT22;10135;50.702;7.276;2023-07-08T06:34:41;25.40;43.80
19947;DHT22;10135;50.702;7.276;2023-07-08T06:36:41;25.50;43.80
19947;DHT22;10135;50.702;7.276;2023-07-08T06:38:42;25.70;44.00
19947;DHT22;10135;50.702;7.276;2023-07-08T06:40:43;25.90;44.00
19947;DHT22;10135;50.702;7.276;2023-07-08T06:42:43;26.00;44.00
19947;DHT22;10135;50.702;7.276;2023-07-08T06:44:44;26.20;43.90
19947;DHT22;10135;50.702;7.276;2023-07-08T06:46:50;26.20;43.70
19947;DHT22;10135;50.702;7.276;2023-07-08T06:48:51;26.30;43.70
19947;DHT22;10135;50.702;7.276;2023-07-08T06:50:52;26.40;44.30
19947;DHT22;10135;50.702;7.276;2023-07-08T06:52:52;26.50;43.60
19947;DHT22;10135;50.702;7.276;2023-07-08T06:54:53;26.60;43.60
19947;DHT22;10135;50.702;7.276;2023-07-08T06:56:53;26.70;43.60
19947;DHT22;10135;50.702;7.276;2023-07-08T06:58:54;26.70;43.50
19947;DHT22;10135;50.702;7.276;2023-07-08T07:00:55;26.70;43.30
19947;DHT22;10135;50.702;7.276;2023-07-08T07:02:55;26.80;43.30
19947;DHT22;10135;50.702;7.276;2023-07-08T07:04:56;26.80;43.30
19947;DHT22;10135;50.702;7.276;2023-07-08T07:06:56;26.80;43.30
19947;DHT22;10135;50.702;7.276;2023-07-08T07:08:57;26.80;43.30
19947;DHT22;10135;50.702;7.276;2023-07-08T07:10:58;26.90;43.30
19947;DHT22;10135;50.702;7.276;2023-07-08T07:12:59;26.90;43.20
19947;DHT22;10135;50.702;7.276;2023-07-08T07:15:00;26.90;43.10
19947;DHT22;10135;50.702;7.276;2023-07-08T07:17:01;26.90;43.00
19947;DHT22;10135;50.702;7.276;2023-07-08T07:19:02;26.90;43.10
19947;DHT22;10135;50.702;7.276;2023-07-08T07:21:02;26.90;43.10
19947;DHT22;10135;50.702;7.276;2023-07-08T07:23:03;26.80;43.00
19947;DHT22;10135;50.702;7.276;2023-07-08T07:25:05;26.80;43.00
19947;DHT22;10135;50.702;7.276;2023-07-08T07:27:06;26.80;43.10
19947;DHT22;10135;50.702;7.276;2023-07-08T07:29:07;26.70;43.10
19947;DHT22;10135;50.702;7.276;2023-07-08T07:31:08;26.70;43.10
19947;DHT22;10135;50.702;7.276;2023-07-08T07:33:11;26.70;43.10
19947;DHT22;10135;50.702;7.276;2023-07-08T07:35:13;26.70;43.20
19947;DHT22;10135;50.702;7.276;2023-07-08T07:37:17;26.60;43.30
19947;DHT22;10135;50.702;7.276;2023-07-08T07:39:19;26.70;43.60
19947;DHT22;10135;50.702;7.276;2023-07-08T07:41:20;26.70;43.60
19947;DHT22;10135;50.702;7.276;2023-07-08T07:43:22;26.70;43.30
19947;DHT22;10135;50.702;7.276;2023-07-08T07:45:22;26.80;43.20
19947;DHT22;10135;50.702;7.276;2023-07-08T07:47:23;26.80;43.20
19947;DHT22;10135;50.702;7.276;2023-07-08T07:49:24;26.80;43.30
19947;DHT22;10135;50.702;7.276;2023-07-08T07:51:24;26.90;43.20
19947;DHT22;10135;50.702;7.276;2023-07-08T07:53:25;26.90;43.10
19947;DHT22;10135;50.702;7.276;2023-07-08T07:55:26;27.00;43.00
19947;DHT22;10135;50.702;7.276;2023-07-08T07:57:27;27.10;43.00
19947;DHT22;10135;50.702;7.276;2023-07-08T07:59:27;27.10;42.90
19947;DHT22;10135;50.702;7.276;2023-07-08T08:01:28;27.20;43.00
19947;DHT22;10135;50.702;7.276;2023-07-08T08:03:28;27.20;43.00
19947;DHT22;10135;50.702;7.276;2023-07-08T08:05:30;27.30;43.00
19947;DHT22;10135;50.702;7.276;2023-07-08T08:07:31;27.40;43.00
19947;DHT22;10135;50.702;7.276;2023-07-08T08:09:31;27.50;43.00
19947;DHT22;10135;50.702;7.276;2023-07-08T08:11:33;27.60;43.00
19947;DHT22;10135;50.702;7.276;2023-07-08T08:13:34;27.60;42.80
19947;DHT22;10135;50.702;7.276;2023-07-08T08:15:35;27.70;42.80
19947;DHT22;10135;50.702;7.276;2023-07-08T08:17:36;27.70;42.70
19947;DHT22;10135;50.702;7.276;2023-07-08T08:19:36;27.80;42.70
19947;DHT22;10135;50.702;7.276;2023-07-08T08:21:37;27.90;42.70
19947;DHT22;10135;50.702;7.276;2023-07-08T08:23:37;27.90;42.60
19947;DHT22;10135;50.702;7.276;2023-07-08T08:25:38;27.90;42.60
19947;DHT22;10135;50.702;7.276;2023-07-08T08:27:39;28.00;42.70
19947;DHT22;10135;50.702;7.276;2023-07-08T08:29:39;28.10;42.50
19947;DHT22;10135;50.702;7.276;2023-07-08T08:31:40;28.10;42.30
19947;DHT22;10135;50.702;7.276;2023-07-08T08:33:40;28.10;42.10
19947;DHT22;10135;50.702;7.276;2023-07-08T08:35:44;28.10;42.00
19947;DHT22;10135;50.702;7.276;2023-07-08T08:37:45;28.20;41.70
19947;DHT22;10135;50.702;7.276;2023-07-08T08:39:46;28.20;42.00
19947;DHT22;10135;50.702;7.276;2023-07-08T08:41:47;28.20;41.90
19947;DHT22;10135;50.702;7.276;2023-07-08T08:43:52;28.30;41.90
19947;DHT22;10135;50.702;7.276;2023-07-08T08:46:44;28.30;41.90
19947;DHT22;10135;50.702;7.276;2023-07-08T08:48:54;28.30;41.80
19947;DHT22;10135;50.702;7.276;2023-07-08T08:51:07;28.40;41.70
19947;DHT22;10135;50.702;7.276;2023-07-08T08:53:16;28.50;41.60
19947;DHT22;10135;50.702;7.276;2023-07-08T08:55:19;28.50;41.70
19947;DHT22;10135;50.702;7.276;2023-07-08T08:57:37;28.60;41.70
19947;DHT22;10135;50.702;7.276;2023-07-08T09:01:56;28.70;41.50
19947;DHT22;10135;50.702;7.276;2023-07-08T09:04:02;28.70;41.40
19947;DHT22;10135;50.702;7.276;2023-07-08T09:06:29;28.80;41.40
19947;DHT22;10135;50.702;7.276;2023-07-08T09:08:34;28.80;41.20
19947;DHT22;10135;50.702;7.276;2023-07-08T09:13:34;28.90;41.30
19947;DHT22;10135;50.702;7.276;2023-07-08T09:15:37;29.10;41.50
19947;DHT22;10135;50.702;7.276;2023-07-08T09:17:38;29.10;41.50
19947;DHT22;10135;50.702;7.276;2023-07-08T09:22:43;29.30;41.10
19947;DHT22;10135;50.702;7.276;2023-07-08T09:25:22;29.30;41.10
19947;DHT22;10135;50.702;7.276;2023-07-08T09:27:31;29.40;41.10
19947;DHT22;10135;50.702;7.276;2023-07-08T09:29:33;29.50;41.20
19947;DHT22;10135;50.702;7.276;2023-07-08T09:31:40;29.50;41.30
19947;DHT22;10135;50.702;7.276;2023-07-08T09:33:42;29.60;41.20
19947;DHT22;10135;50.702;7.276;2023-07-08T09:35:46;29.70;41.10
19947;DHT22;10135;50.702;7.276;2023-07-08T09:37:49;29.70;41.00
19947;DHT22;10135;50.702;7.276;2023-07-08T09:39:54;29.70;40.90
19947;DHT22;10135;50.702;7.276;2023-07-08T09:41:56;29.80;40.90
19947;DHT22;10135;50.702;7.276;2023-07-08T09:44:13;29.90;40.90
19947;DHT22;10135;50.702;7.276;2023-07-08T09:46:17;29.90;40.60
19947;DHT22;10135;50.702;7.276;2023-07-08T09:48:39;30.00;40.80
19947;DHT22;10135;50.702;7.276;2023-07-08T09:50:43;30.00;40.50
19947;DHT22;10135;50.702;7.276;2023-07-08T09:52:46;30.00;40.60
19947;DHT22;10135;50.702;7.276;2023-07-08T09:54:48;30.10;40.70
19947;DHT22;10135;50.702;7.276;2023-07-08T09:57:39;30.20;40.70
19947;DHT22;10135;50.702;7.276;2023-07-08T09:59:27;30.20;40.40
19947;DHT22;10135;50.702;7.276;2023-07-08T10:01:32;30.20;40.60
19947;DHT22;10135;50.702;7.276;2023-07-08T10:03:34;30.30;40.60
19947;DHT22;10135;50.702;7.276;2023-07-08T10:05:39;30.30;40.40
19947;DHT22;10135;50.702;7.276;2023-07-08T10:07:41;30.40;40.40
19947;DHT22;10135;50.702;7.276;2023-07-08T10:09:41;30.40;40.30
19947;DHT22;10135;50.702;7.276;2023-07-08T10:11:46;30.50;40.30
19947;DHT22;10135;50.702;7.276;2023-07-08T10:13:54;30.50;40.20
19947;DHT22;10135;50.702;7.276;2023-07-08T10:18:17;30.50;40.10
19947;DHT22;10135;50.702;7.276;2023-07-08T10:20:35;30.60;40.20
19947;DHT22;10135;50.702;7.276;2023-07-08T10:23:01;30.70;40.10
19947;DHT22;10135;50.702;7.276;2023-07-08T10:31:16;30.80;39.80
19947;DHT22;10135;50.702;7.276;2023-07-08T10:34:08;30.90;39.80
19947;DHT22;10135;50.702;7.276;2023-07-08T10:38:59;31.00;39.60
19947;DHT22;10135;50.702;7.276;2023-07-08T10:44:05;31.00;39.40
19947;DHT22;10135;50.702;7.276;2023-07-08T10:46:20;31.10;39.50
19947;DHT22;10135;50.702;7.276;2023-07-08T10:55:55;31.30;39.00
19947;DHT22;10135;50.702;7.276;2023-07-08T11:01:10;31.50;38.80
19947;DHT22;10135;50.702;7.276;2023-07-08T11:03:57;31.60;39.10
19947;DHT22;10135;50.702;7.276;2023-07-08T11:06:18;31.60;39.00
19947;DHT22;10135;50.702;7.276;2023-07-08T11:08:36;31.70;38.50
19947;DHT22;10135;50.702;7.276;2023-07-08T11:11:00;31.70;38.60
19947;DHT22;10135;50.702;7.276;2023-07-08T11:13:11;31.70;38.50
19947;DHT22;10135;50.702;7.276;2023-07-08T11:17:59;31.80;38.30
19947;DHT22;10135;50.702;7.276;2023-07-08T11:20:44;31.90;38.30
19947;DHT22;10135;50.702;7.276;2023-07-08T11:23:09;32.00;38.30
19947;DHT22;10135;50.702;7.276;2023-07-08T11:25:20;32.00;38.00
19947;DHT22;10135;50.702;7.276;2023-07-08T11:27:27;32.10;38.40
19947;DHT22;10135;50.702;7.276;2023-07-08T11:29:41;32.10;38.10
19947;DHT22;10135;50.702;7.276;2023-07-08T11:31:46;32.20;37.90
19947;DHT22;10135;50.702;7.276;2023-07-08T11:33:49;32.20;38.20
19947;DHT22;10135;50.702;7.276;2023-07-08T11:35:55;32.30;38.20
19947;DHT22;10135;50.702;7.276;2023-07-08T11:37:59;32.30;38.00
19947;DHT22;10135;50.702;7.276;2023-07-08T11:40:21;32.40;38.00
19947;DHT22;10135;50.702;7.276;2023-07-08T11:42:34;32.40;37.80
19947;DHT22;10135;50.702;7.276;2023-07-08T11:44:57;32.50;37.90
19947;DHT22;10135;50.702;7.276;2023-07-08T11:46:59;32.50;38.00
19947;DHT22;10135;50.702;7.276;2023-07-08T11:49:11;32.60;38.00
19947;DHT22;10135;50.702;7.276;2023-07-08T11:51:19;32.60;37.60
19947;DHT22;10135;50.702;7.276;2023-07-08T11:53:31;32.60;37.70
19947;DHT22;10135;50.702;7.276;2023-07-08T11:56:01;32.70;37.70
19947;DHT22;10135;50.702;7.276;2023-07-08T11:58:07;32.70;37.70
19947;DHT22;10135;50.702;7.276;2023-07-08T12:00:20;32.70;37.80
19947;DHT22;10135;50.702;7.276;2023-07-08T12:02:23;32.70;37.60
19947;DHT22;10135;50.702;7.276;2023-07-08T12:04:31;32.80;37.80
19947;DHT22;10135;50.702;7.276;2023-07-08T12:09:27;32.80;37.50
19947;DHT22;10135;50.702;7.276;2023-07-08T12:11:34;32.80;37.40
19947;DHT22;10135;50.702;7.276;2023-07-08T12:13:35;32.90;37.40
19947;DHT22;10135;50.702;7.276;2023-07-08T12:15:36;32.90;37.50
19947;DHT22;10135;50.702;7.276;2023-07-08T12:17:39;32.90;37.50
19947;DHT22;10135;50.702;7.276;2023-07-08T12:19:43;32.90;37.50
19947;DHT22;10135;50.702;7.276;2023-07-08T12:21:46;32.90;37.50
19947;DHT22;10135;50.702;7.276;2023-07-08T12:23:48;33.00;37.50
19947;DHT22;10135;50.702;7.276;2023-07-08T12:25:50;33.00;37.40
19947;DHT22;10135;50.702;7.276;2023-07-08T12:27:51;33.00;37.40
19947;DHT22;10135;50.702;7.276;2023-07-08T12:29:52;33.00;37.30
19947;DHT22;10135;50.702;7.276;2023-07-08T12:31:53;33.10;37.40
19947;DHT22;10135;50.702;7.276;2023-07-08T12:33:54;33.00;37.40
19947;DHT22;10135;50.702;7.276;2023-07-08T12:35:55;33.10;37.30
19947;DHT22;10135;50.702;7.276;2023-07-08T12:38:02;33.10;37.30
19947;DHT22;10135;50.702;7.276;2023-07-08T12:40:10;33.20;37.10
19947;DHT22;10135;50.702;7.276;2023-07-08T12:42:18;33.20;37.20
19947;DHT22;10135;50.702;7.276;2023-07-08T12:44:21;33.20;37.80
19947;DHT22;10135;50.702;7.276;2023-07-08T12:46:25;33.30;37.20
19947;DHT22;10135;50.702;7.276;2023-07-08T12:48:32;33.30;37.00
19947;DHT22;10135;50.702;7.276;2023-07-08T12:50:34;33.30;36.80
19947;DHT22;10135;50.702;7.276;2023-07-08T12:52:35;33.30;36.90
19947;DHT22;10135;50.702;7.276;2023-07-08T12:54:35;33.40;36.90
19947;DHT22;10135;50.702;7.276;2023-07-08T12:56:37;33.30;36.80
19947;DHT22;10135;50.702;7.276;2023-07-08T12:58:44;33.40;36.90
19947;DHT22;10135;50.702;7.276;2023-07-08T13:00:49;33.40;36.60
19947;DHT22;10135;50.702;7.276;2023-07-08T13:03:03;33.50;36.80
19947;DHT22;10135;50.702;7.276;2023-07-08T13:05:10;33.40;36.60
19947;DHT22;10135;50.702;7.276;2023-07-08T13:09:44;33.50;36.50
19947;DHT22;10135;50.702;7.276;2023-07-08T13:11:46;33.50;36.70
19947;DHT22;10135;50.702;7.276;2023-07-08T13:13:52;33.60;36.70
19947;DHT22;10135;50.702;7.276;2023-07-08T13:15:56;33.60;36.70
19947;DHT22;10135;50.702;7.276;2023-07-08T13:17:58;33.60;36.60
19947;DHT22;10135;50.702;7.276;2023-07-08T13:19:59;33.60;36.60
19947;DHT22;10135;50.702;7.276;2023-07-08T13:22:00;33.70;36.70
19947;DHT22;10135;50.702;7.276;2023-07-08T13:24:06;33.70;36.70
19947;DHT22;10135;50.702;7.276;2023-07-08T13:26:14;33.70;36.60
19947;DHT22;10135;50.702;7.276;2023-07-08T13:28:23;33.80;36.50
19947;DHT22;10135;50.702;7.276;2023-07-08T13:30:28;33.80;36.50
19947;DHT22;10135;50.702;7.276;2023-07-08T13:32:30;33.80;36.40
19947;DHT22;10135;50.702;7.276;2023-07-08T13:34:32;33.80;36.60
19947;DHT22;10135;50.702;7.276;2023-07-08T13:36:37;33.90;36.60
19947;DHT22;10135;50.702;7.276;2023-07-08T13:38:39;33.90;36.40
19947;DHT22;10135;50.702;7.276;2023-07-08T13:40:48;34.00;36.40
19947;DHT22;10135;50.702;7.276;2023-07-08T13:42:54;34.00;36.30
19947;DHT22;10135;50.702;7.276;2023-07-08T13:44:55;34.00;36.40
19947;DHT22;10135;50.702;7.276;2023-07-08T13:47:28;34.00;36.40
19947;DHT22;10135;50.702;7.276;2023-07-08T13:51:40;34.10;36.20
19947;DHT22;10135;50.702;7.276;2023-07-08T13:53:46;34.10;36.20
19947;DHT22;10135;50.702;7.276;2023-07-08T13:56:00;34.10;36.20
19947;DHT22;10135;50.702;7.276;2023-07-08T13:58:03;34.10;36.10
19947;DHT22;10135;50.702;7.276;2023-07-08T14:00:07;34.20;36.30
19947;DHT22;10135;50.702;7.276;2023-07-08T14:02:16;34.20;36.20
19947;DHT22;10135;50.702;7.276;2023-07-08T14:04:33;34.20;36.10
19947;DHT22;10135;50.702;7.276;2023-07-08T14:06:37;34.20;36.00
19947;DHT22;10135;50.702;7.276;2023-07-08T14:08:38;34.20;36.10
19947;DHT22;10135;50.702;7.276;2023-07-08T14:10:39;34.30;36.20
19947;DHT22;10135;50.702;7.276;2023-07-08T14:12:40;34.30;36.30
19947;DHT22;10135;50.702;7.276;2023-07-08T14:14:41;34.30;36.30
19947;DHT22;10135;50.702;7.276;2023-07-08T14:16:44;34.30;36.30
19947;DHT22;10135;50.702;7.276;2023-07-08T14:18:47;34.40;36.30
19947;DHT22;10135;50.702;7.276;2023-07-08T14:20:48;34.40;36.10
19947;DHT22;10135;50.702;7.276;2023-07-08T14:22:49;34.30;36.00
19947;DHT22;10135;50.702;7.276;2023-07-08T14:24:51;34.30;36.10
19947;DHT22;10135;50.702;7.276;2023-07-08T14:26:53;34.30;36.20
19947;DHT22;10135;50.702;7.276;2023-07-08T14:28:54;34.30;36.10
19947;DHT22;10135;50.702;7.276;2023-07-08T14:30:55;34.30;36.20
19947;DHT22;10135;50.702;7.276;2023-07-08T14:32:55;34.30;36.20
19947;DHT22;10135;50.702;7.276;2023-07-08T14:34:59;34.30;36.30
19947;DHT22;10135;50.702;7.276;2023-07-08T14:37:14;34.30;36.30
19947;DHT22;10135;50.702;7.276;2023-07-08T14:39:16;34.30;36.40
19947;DHT22;10135;50.702;7.276;2023-07-08T14:41:18;34.30;36.30
19947;DHT22;10135;50.702;7.276;2023-07-08T14:43:24;34.30;36.40
19947;DHT22;10135;50.702;7.276;2023-07-08T14:45:33;34.20;36.50
19947;DHT22;10135;50.702;7.276;2023-07-08T14:47:40;34.20;36.50
19947;DHT22;10135;50.702;7.276;2023-07-08T14:49:41;34.20;36.30
19947;DHT22;10135;50.702;7.276;2023-07-08T14:51:41;34.20;36.10
19947;DHT22;10135;50.702;7.276;2023-07-08T14:53:42;34.20;36.20
19947;DHT22;10135;50.702;7.276;2023-07-08T14:55:44;34.10;36.30
19947;DHT22;10135;50.702;7.276;2023-07-08T14:57:48;34.10;36.50
19947;DHT22;10135;50.702;7.276;2023-07-08T14:59:49;34.20;37.10
19947;DHT22;10135;50.702;7.276;2023-07-08T15:01:50;34.20;36.50
19947;DHT22;10135;50.702;7.276;2023-07-08T15:03:52;34.20;36.50
19947;DHT22;10135;50.702;7.276;2023-07-08T15:05:53;34.30;36.60
19947;DHT22;10135;50.702;7.276;2023-07-08T15:07:56;34.30;36.50
19947;DHT22;10135;50.702;7.276;2023-07-08T15:09:58;34.30;36.40
19947;DHT22;10135;50.702;7.276;2023-07-08T15:11:58;34.40;36.40
19947;DHT22;10135;50.702;7.276;2023-07-08T15:14:00;34.40;36.40
19947;DHT22;10135;50.702;7.276;2023-07-08T15:16:02;34.50;36.40
19947;DHT22;10135;50.702;7.276;2023-07-08T15:18:11;34.50;36.30
19947;DHT22;10135;50.702;7.276;2023-07-08T15:20:14;34.60;36.20
19947;DHT22;10135;50.702;7.276;2023-07-08T15:22:15;34.60;36.20
19947;DHT22;10135;50.702;7.276;2023-07-08T15:24:16;34.60;36.20
19947;DHT22;10135;50.702;7.276;2023-07-08T15:26:16;34.70;36.20
19947;DHT22;10135;50.702;7.276;2023-07-08T15:28:33;34.70;36.20
19947;DHT22;10135;50.702;7.276;2023-07-08T15:30:48;34.70;36.00
19947;DHT22;10135;50.702;7.276;2023-07-08T15:32:49;34.70;36.20
19947;DHT22;10135;50.702;7.276;2023-07-08T15:34:49;34.70;36.10
19947;DHT22;10135;50.702;7.276;2023-07-08T15:36:50;34.80;36.00
19947;DHT22;10135;50.702;7.276;2023-07-08T15:38:50;34.90;36.00
19947;DHT22;10135;50.702;7.276;2023-07-08T15:40:52;34.90;35.80
19947;DHT22;10135;50.702;7.276;2023-07-08T15:42:54;34.90;35.70
19947;DHT22;10135;50.702;7.276;2023-07-08T15:44:56;34.90;35.60
19947;DHT22;10135;50.702;7.276;2023-07-08T15:46:56;35.00;35.70
19947;DHT22;10135;50.702;7.276;2023-07-08T15:48:57;35.00;35.60
19947;DHT22;10135;50.702;7.276;2023-07-08T15:50:58;35.00;35.60
19947;DHT22;10135;50.702;7.276;2023-07-08T15:52:58;35.10;35.60
19947;DHT22;10135;50.702;7.276;2023-07-08T15:54:59;35.10;35.40
19947;DHT22;10135;50.702;7.276;2023-07-08T15:56:59;35.00;35.40
19947;DHT22;10135;50.702;7.276;2023-07-08T15:59:00;35.00;35.30
19947;DHT22;10135;50.702;7.276;2023-07-08T16:01:02;35.00;35.30
19947;DHT22;10135;50.702;7.276;2023-07-08T16:03:10;35.10;35.40
19947;DHT22;10135;50.702;7.276;2023-07-08T16:05:13;35.10;35.30
19947;DHT22;10135;50.702;7.276;2023-07-08T16:07:14;35.00;35.20
19947;DHT22;10135;50.702;7.276;2023-07-08T16:09:15;35.00;35.10
19947;DHT22;10135;50.702;7.276;2023-07-08T16:11:20;34.90;35.10
19947;DHT22;10135;50.702;7.276;2023-07-08T16:13:28;34.90;35.10
19947;DHT22;10135;50.702;7.276;2023-07-08T16:15:35;34.80;35.10
19947;DHT22;10135;50.702;7.276;2023-07-08T16:18:11;34.70;34.90
19947;DHT22;10135;50.702;7.276;2023-07-08T16:20:18;34.60;35.00
19947;DHT22;10135;50.702;7.276;2023-07-08T16:22:22;34.60;35.00
19947;DHT22;10135;50.702;7.276;2023-07-08T16:24:22;34.50;35.10
19947;DHT22;10135;50.702;7.276;2023-07-08T16:26:23;34.40;35.20
19947;DHT22;10135;50.702;7.276;2023-07-08T16:28:36;34.40;35.40
19947;DHT22;10135;50.702;7.276;2023-07-08T16:30:40;34.40;35.50
19947;DHT22;10135;50.702;7.276;2023-07-08T16:32:42;34.30;35.60
19947;DHT22;10135;50.702;7.276;2023-07-08T16:34:43;34.20;35.50
19947;DHT22;10135;50.702;7.276;2023-07-08T16:36:44;34.20;35.50
19947;DHT22;10135;50.702;7.276;2023-07-08T16:38:45;34.10;35.40
19947;DHT22;10135;50.702;7.276;2023-07-08T16:40:46;34.10;35.40
19947;DHT22;10135;50.702;7.276;2023-07-08T16:42:48;34.00;35.40
19947;DHT22;10135;50.702;7.276;2023-07-08T16:44:50;34.00;35.40
19947;DHT22;10135;50.702;7.276;2023-07-08T16:46:50;33.90;35.30
19947;DHT22;10135;50.702;7.276;2023-07-08T16:48:51;33.90;35.30
19947;DHT22;10135;50.702;7.276;2023-07-08T16:50:52;33.80;35.30
19947;DHT22;10135;50.702;7.276;2023-07-08T16:52:53;33.80;35.30
19947;DHT22;10135;50.702;7.276;2023-07-08T16:54:53;33.80;35.40
19947;DHT22;10135;50.702;7.276;2023-07-08T16:56:54;33.70;35.30
19947;DHT22;10135;50.702;7.276;2023-07-08T16:58:55;33.70;35.30
19947;DHT22;10135;50.702;7.276;2023-07-08T17:00:55;33.70;35.40
19947;DHT22;10135;50.702;7.276;2023-07-08T17:02:57;33.60;35.30
19947;DHT22;10135;50.702;7.276;2023-07-08T17:04:59;33.60;35.00
19947;DHT22;10135;50.702;7.276;2023-07-08T17:06:59;33.60;35.10
19947;DHT22;10135;50.702;7.276;2023-07-08T17:09:00;33.60;35.00
19947;DHT22;10135;50.702;7.276;2023-07-08T17:11:04;33.50;34.90
19947;DHT22;10135;50.702;7.276;2023-07-08T17:13:05;33.40;34.70
19947;DHT22;10135;50.702;7.276;2023-07-08T17:15:07;33.30;35.30
19947;DHT22;10135;50.702;7.276;2023-07-08T17:17:12;33.20;34.70
19947;DHT22;10135;50.702;7.276;2023-07-08T17:19:13;33.20;34.70
19947;DHT22;10135;50.702;7.276;2023-07-08T17:21:15;33.10;34.70
19947;DHT22;10135;50.702;7.276;2023-07-08T17:23:18;33.00;34.70
19947;DHT22;10135;50.702;7.276;2023-07-08T17:25:22;32.90;34.60
19947;DHT22;10135;50.702;7.276;2023-07-08T17:27:24;32.90;34.90
19947;DHT22;10135;50.702;7.276;2023-07-08T17:29:25;32.80;35.00
19947;DHT22;10135;50.702;7.276;2023-07-08T17:31:26;32.80;35.10
19947;DHT22;10135;50.702;7.276;2023-07-08T17:33:27;32.80;35.30
19947;DHT22;10135;50.702;7.276;2023-07-08T17:35:28;32.60;35.20
19947;DHT22;10135;50.702;7.276;2023-07-08T17:37:29;32.70;35.50
19947;DHT22;10135;50.702;7.276;2023-07-08T17:39:30;32.60;35.60
19947;DHT22;10135;50.702;7.276;2023-07-08T17:41:30;32.60;35.70
19947;DHT22;10135;50.702;7.276;2023-07-08T17:43:31;32.60;35.80
19947;DHT22;10135;50.702;7.276;2023-07-08T17:45:42;32.60;35.90
19947;DHT22;10135;50.702;7.276;2023-07-08T17:47:47;32.60;35.80
19947;DHT22;10135;50.702;7.276;2023-07-08T17:49:48;32.60;35.80
19947;DHT22;10135;50.702;7.276;2023-07-08T17:51:49;32.50;35.80
19947;DHT22;10135;50.702;7.276;2023-07-08T17:53:50;32.40;36.00
19947;DHT22;10135;50.702;7.276;2023-07-08T17:55:52;32.40;36.30
19947;DHT22;10135;50.702;7.276;2023-07-08T17:57:53;32.40;36.50
19947;DHT22;10135;50.702;7.276;2023-07-08T17:59:54;32.30;36.60
19947;DHT22;10135;50.702;7.276;2023-07-08T18:01:54;32.20;37.00
19947;DHT22;10135;50.702;7.276;2023-07-08T18:03:55;32.10;37.00
19947;DHT22;10135;50.702;7.276;2023-07-08T18:05:56;32.00;37.20
19947;DHT22;10135;50.702;7.276;2023-07-08T18:07:57;31.90;37.30
19947;DHT22;10135;50.702;7.276;2023-07-08T18:09:57;31.80;37.50
19947;DHT22;10135;50.702;7.276;2023-07-08T18:11:58;31.70;37.70
19947;DHT22;10135;50.702;7.276;2023-07-08T18:13:59;31.70;37.90
19947;DHT22;10135;50.702;7.276;2023-07-08T18:16:00;31.60;38.00
19947;DHT22;10135;50.702;7.276;2023-07-08T18:18:02;31.50;38.10
19947;DHT22;10135;50.702;7.276;2023-07-08T18:20:02;31.50;38.20
19947;DHT22;10135;50.702;7.276;2023-07-08T18:22:04;31.30;38.30
19947;DHT22;10135;50.702;7.276;2023-07-08T18:24:08;31.30;38.40
19947;DHT22;10135;50.702;7.276;2023-07-08T18:26:17;31.30;38.90
19947;DHT22;10135;50.702;7.276;2023-07-08T18:28:28;31.20;38.90
19947;DHT22;10135;50.702;7.276;2023-07-08T18:30:29;31.20;38.90
19947;DHT22;10135;50.702;7.276;2023-07-08T18:32:30;31.10;38.90
19947;DHT22;10135;50.702;7.276;2023-07-08T18:34:30;31.10;39.00
19947;DHT22;10135;50.702;7.276;2023-07-08T18:36:32;31.00;39.00
19947;DHT22;10135;50.702;7.276;2023-07-08T18:38:32;30.90;39.10
19947;DHT22;10135;50.702;7.276;2023-07-08T18:40:35;30.90;39.30
19947;DHT22;10135;50.702;7.276;2023-07-08T18:42:40;30.90;39.50
19947;DHT22;10135;50.702;7.276;2023-07-08T18:44:42;30.80;39.50
19947;DHT22;10135;50.702;7.276;2023-07-08T18:46:43;30.70;39.60
19947;DHT22;10135;50.702;7.276;2023-07-08T18:48:44;30.70;39.80
19947;DHT22;10135;50.702;7.276;2023-07-08T18:50:52;30.70;40.00
19947;DHT22;10135;50.702;7.276;2023-07-08T18:52:55;30.60;40.70
19947;DHT22;10135;50.702;7.276;2023-07-08T18:54:56;30.60;40.30
19947;DHT22;10135;50.702;7.276;2023-07-08T18:56:57;30.50;40.40
19947;DHT22;10135;50.702;7.276;2023-07-08T18:58:57;30.50;40.50
19947;DHT22;10135;50.702;7.276;2023-07-08T19:00:58;30.50;40.70
19947;DHT22;10135;50.702;7.276;2023-07-08T19:02:59;30.50;40.80
19947;DHT22;10135;50.702;7.276;2023-07-08T19:05:02;30.40;40.80
19947;DHT22;10135;50.702;7.276;2023-07-08T19:07:03;30.40;40.90
19947;DHT22;10135;50.702;7.276;2023-07-08T19:09:04;30.30;41.90
19947;DHT22;10135;50.702;7.276;2023-07-08T19:11:24;30.30;41.60
19947;DHT22;10135;50.702;7.276;2023-07-08T19:13:27;30.30;42.00
19947;DHT22;10135;50.702;7.276;2023-07-08T19:15:30;30.30;41.50
19947;DHT22;10135;50.702;7.276;2023-07-08T19:17:32;30.30;41.60